Terminal Aerodrome Forecast
Issued by NWS Billings, MT

Home | Current Version | Previous Version | Text Only | Print | Product List | Glossary On
Versions: 1 2 3 4 5 6 7 8 9 10 11 12 13 14 15 16 17 18 19 20 21 22 23 24 25 26 27 28 29 30 31 32 33 34
000
FTUS45 KBYZ 012331
TAFSHR
TAF
KSHR 012331Z 0200/0224 31014G22KT P6SM VCSH SCT030 BKN050
     FM020100 VRB06KT P6SM BKN250
     FM021700 32015G24KT P6SM VCSH SCT060=

USA.gov is the U.S. government's official web portal to all federal, state and local government web resources and services.